Lowden, Iowa
Current Conditions -  °F | °C
As of 2:52 PM on Friday 24 Oct 2014 (Local Time) from KDVN Reporting Station
Clear Clear  
Wind Chill: 69°   Ceiling: Unl
Heat Index: 69°   Visibility: 10mi
Dew Point: 50°   Wind: 18mph
Humidity: 51%   Direction: 190°S
Pressure: 29.96"   Gusts: 24mph
Location:  41.86°N, 90.93°W
Report Text: KDVN 241952Z AUTO 19016G21KT 10SM CLR 21/10 A2996 RMK AO2 SLP144 T02060100 TSNO
Loading
Personal Weather Stations






























Interactive Weather Map
Tropical Storm Tracking
New forecast layout! Learn more

10-Day Weather Forecast

Advertisements
Track Severe Weather on mobile